createdAt,value
2022-10-23T00:01:51.592Z,66.35
2022-10-23T00:04:22.142Z,66.16
2022-10-23T00:06:50.642Z,66.31
2022-10-23T00:09:23.164Z,66.49
2022-10-23T00:11:52.823Z,67.02
2022-10-23T00:14:25.193Z,67.35
2022-10-23T00:16:53.858Z,67.95
2022-10-23T00:19:22.267Z,67.76
2022-10-23T00:21:50.721Z,68.26
2022-10-23T00:24:19.203Z,68.72
2022-10-23T00:26:51.164Z,68.37
2022-10-23T00:29:19.750Z,69.01
2022-10-23T00:31:48.040Z,69.21
2022-10-23T00:34:19.672Z,68.22
2022-10-23T00:36:48.057Z,68.28
2022-10-23T00:39:16.390Z,68.03
2022-10-23T00:41:44.930Z,67.38
2022-10-23T00:44:18.965Z,66.99
2022-10-23T00:46:47.714Z,67.11
2022-10-23T00:49:17.033Z,66.54
2022-10-23T00:51:57.438Z,66.11
2022-10-23T00:54:29.844Z,66.36
2022-10-23T00:57:02.522Z,66.84
2022-10-23T00:59:31.577Z,67.31
2022-10-23T01:02:00.841Z,68.04
2022-10-23T01:04:30.266Z,69.84
2022-10-23T01:07:10.722Z,71.42
2022-10-23T01:09:54.217Z,72.25
2022-10-23T01:12:56.218Z,73.17
2022-10-23T01:16:01.734Z,73.78
2022-10-23T01:18:45.370Z,74.59
2022-10-23T01:21:46.413Z,75.10
2022-10-23T01:24:53.002Z,75.98
2022-10-23T01:27:47.737Z,76.45
2022-10-23T01:30:17.746Z,76.44
2022-10-23T01:33:09.746Z,77.09
2022-10-23T01:36:14.767Z,77.96
2022-10-23T01:41:47.238Z,78.04
2022-10-23T01:44:27.843Z,79.06
2022-10-23T01:46:57.993Z,79.83
2022-10-23T01:49:28.880Z,79.73
2022-10-23T01:52:02.794Z,80.58
2022-10-23T01:54:35.976Z,80.10
2022-10-23T01:57:05.697Z,80.01
2022-10-23T01:59:39.806Z,80.73
2022-10-23T02:02:12.302Z,80.66
2022-10-23T02:04:59.398Z,80.52
2022-10-23T02:07:27.930Z,81.56
2022-10-23T02:09:56.569Z,82.06
2022-10-23T02:12:38.261Z,81.69
2022-10-23T02:15:33.277Z,82.06
2022-10-23T02:18:38.202Z,82.17
2022-10-23T02:21:15.805Z,82.42
2022-10-23T02:23:56.558Z,82.48
2022-10-23T02:26:29.347Z,82.98
2022-10-23T02:29:07.547Z,82.43
2022-10-23T02:31:37.579Z,83.30
2022-10-23T02:34:06.046Z,84.15
2022-10-23T02:36:34.420Z,84.33
2022-10-23T02:39:04.800Z,84.93
2022-10-23T02:41:56.398Z,85.17
2022-10-23T02:45:05.293Z,86.20
2022-10-23T02:48:13.525Z,88.55
2022-10-23T02:51:02.949Z,88.47
2022-10-23T02:54:16.413Z,88.90
2022-10-23T02:57:10.449Z,89.66
2022-10-23T02:59:47.903Z,89.29
2022-10-23T03:02:33.455Z,89.19
2022-10-23T03:05:04.920Z,90.08
2022-10-23T03:07:34.854Z,90.13
2022-10-23T03:10:09.557Z,89.95
2022-10-23T03:12:38.883Z,89.45
2022-10-23T03:15:08.625Z,91.13
2022-10-23T03:17:37.262Z,91.39
2022-10-23T03:20:07.977Z,91.72
2022-10-23T03:22:37.716Z,91.67
2022-10-23T03:25:07.439Z,91.97
2022-10-23T03:27:37.546Z,91.77
2022-10-23T03:30:08.678Z,91.68
2022-10-23T03:32:38.484Z,91.38
2022-10-23T03:35:08.225Z,91.37
2022-10-23T03:37:36.589Z,91.66
2022-10-23T03:40:06.580Z,92.07
2022-10-23T03:42:36.109Z,91.86
2022-10-23T03:45:06.023Z,92.06
2022-10-23T03:47:35.716Z,91.73
2022-10-23T03:50:05.274Z,91.52
2022-10-23T03:52:34.430Z,91.59
2022-10-23T03:55:03.101Z,91.55
2022-10-23T03:57:31.689Z,91.78
2022-10-23T04:00:00.092Z,91.73
2022-10-23T04:02:31.102Z,91.38
2022-10-23T04:04:59.399Z,91.04
2022-10-23T04:07:29.518Z,90.61
2022-10-23T04:10:00.906Z,91.19
2022-10-23T04:12:29.656Z,91.21
2022-10-23T04:14:58.012Z,90.63
2022-10-23T04:20:00.406Z,90.76
2022-10-23T04:22:29.111Z,91.15
2022-10-23T04:24:57.485Z,91.32
2022-10-23T04:27:25.850Z,91.38
2022-10-23T04:29:56.816Z,91.97
2022-10-23T04:32:28.541Z,92.61
2022-10-23T04:34:58.170Z,92.90
2022-10-23T04:37:26.838Z,92.40
2022-10-23T04:39:55.231Z,92.88
2022-10-23T04:42:23.620Z,92.74
2022-10-23T04:44:52.499Z,92.64
2022-10-23T04:47:21.017Z,92.30
2022-10-23T04:49:58.756Z,92.16
2022-10-23T04:52:45.971Z,91.86
2022-10-23T04:55:58.397Z,92.07
2022-10-23T04:59:16.350Z,92.24
2022-10-23T05:01:45.310Z,92.52
2022-10-23T05:04:15.052Z,92.89
2022-10-23T05:07:02.272Z,92.79
2022-10-23T05:09:48.368Z,92.47
2022-10-23T05:12:57.705Z,92.63
2022-10-23T05:15:26.274Z,92.48
2022-10-23T05:18:08.842Z,92.55
2022-10-23T05:20:39.313Z,92.42
2022-10-23T05:23:13.848Z,92.29
2022-10-23T05:25:45.585Z,91.78
2022-10-23T05:28:17.448Z,91.69
2022-10-23T05:30:46.195Z,91.35
2022-10-23T05:33:15.065Z,91.48
2022-10-23T05:35:45.553Z,91.37
2022-10-23T05:38:16.754Z,91.07
2022-10-23T05:40:45.505Z,90.80
2022-10-23T05:43:19.616Z,90.31
2022-10-23T05:45:51.372Z,90.09
2022-10-23T05:48:34.279Z,90.06
2022-10-23T05:51:22.405Z,89.80
2022-10-23T05:53:59.517Z,89.92
2022-10-23T05:56:41.819Z,89.64
2022-10-23T05:59:34.467Z,89.29
2022-10-23T06:02:21.095Z,89.33
2022-10-23T06:04:53.264Z,89.08
2022-10-23T06:08:08.415Z,88.81
2022-10-23T06:10:37.101Z,88.69
2022-10-23T06:13:07.428Z,88.86
2022-10-23T06:15:35.907Z,89.07
2022-10-23T06:18:15.749Z,89.68
2022-10-23T06:20:57.445Z,89.62
2022-10-23T06:23:27.648Z,89.96
2022-10-23T06:26:16.841Z,89.99
2022-10-23T06:29:04.050Z,89.91
2022-10-23T06:31:33.030Z,89.65
2022-10-23T06:34:01.401Z,89.41
2022-10-23T06:36:31.530Z,89.21
2022-10-23T06:39:43.385Z,89.38
2022-10-23T06:42:16.017Z,89.63
2022-10-23T06:44:57.648Z,89.89
2022-10-23T06:47:44.750Z,90.32
2022-10-23T06:50:31.634Z,90.66
2022-10-23T06:53:01.230Z,90.11
2022-10-23T06:55:30.546Z,90.78
2022-10-23T06:57:59.616Z,90.71
2022-10-23T07:00:28.074Z,90.78
2022-10-23T07:02:57.323Z,91.06
2022-10-23T07:05:26.718Z,90.08
2022-10-23T07:07:55.098Z,90.34
2022-10-23T07:10:26.855Z,90.16
2022-10-23T07:13:01.363Z,90.04
2022-10-23T07:15:49.793Z,89.95
2022-10-23T07:18:24.418Z,89.61
2022-10-23T07:21:35.408Z,89.95
2022-10-23T07:24:31.657Z,90.64
2022-10-23T07:27:01.573Z,91.09
2022-10-23T07:29:31.061Z,91.19
2022-10-23T07:32:04.669Z,91.57
2022-10-23T07:35:06.703Z,91.99
2022-10-23T07:37:36.342Z,92.90
2022-10-23T07:40:06.969Z,92.52
2022-10-23T07:42:39.766Z,92.33
2022-10-23T07:45:10.144Z,92.56
2022-10-23T07:47:39.928Z,92.81
2022-10-23T07:50:10.105Z,92.89
2022-10-23T07:52:38.894Z,92.87
2022-10-23T07:55:14.853Z,92.97
2022-10-23T07:57:52.313Z,93.21
2022-10-23T08:01:32.241Z,93.87
2022-10-23T08:04:01.198Z,94.00
2022-10-23T08:06:30.121Z,93.40
2022-10-23T08:08:59.984Z,93.31
2022-10-23T08:11:35.882Z,92.79
2022-10-23T08:14:08.477Z,93.71
2022-10-23T08:16:38.935Z,93.83
2022-10-23T08:19:27.212Z,93.31
2022-10-23T08:21:57.418Z,93.21
2022-10-23T08:24:25.998Z,92.81
2022-10-23T08:26:54.387Z,92.71
2022-10-23T08:29:24.515Z,92.33
2022-10-23T08:31:56.681Z,91.92
2022-10-23T08:35:08.406Z,91.35
2022-10-23T08:37:37.881Z,91.06
2022-10-23T08:40:07.705Z,90.53
2022-10-23T08:43:47.330Z,90.29
2022-10-23T08:46:31.987Z,89.89
2022-10-23T08:50:14.375Z,89.70
2022-10-23T08:53:05.708Z,89.84
2022-10-23T08:55:38.922Z,89.84
2022-10-23T08:58:18.953Z,89.71
2022-10-23T09:00:49.872Z,89.63
2022-10-23T09:03:18.780Z,89.86
2022-10-23T09:06:23.616Z,89.47
2022-10-23T09:09:29.698Z,88.63
2022-10-23T09:12:21.389Z,88.01
2022-10-23T09:15:13.148Z,87.81
2022-10-23T09:17:44.525Z,87.73
2022-10-23T09:20:26.838Z,87.77
2022-10-23T09:23:00.825Z,87.56
2022-10-23T09:25:37.123Z,87.51
2022-10-23T09:28:06.620Z,87.64
2022-10-23T09:30:42.177Z,87.26
2022-10-23T09:33:22.589Z,86.76
2022-10-23T09:36:12.677Z,86.47
2022-10-23T09:38:46.911Z,85.61
2022-10-23T09:41:36.002Z,85.53
2022-10-23T09:44:20.612Z,85.77
2022-10-23T09:46:54.101Z,85.40
2022-10-23T09:49:23.986Z,85.18
2022-10-23T09:52:30.890Z,84.37
2022-10-23T09:55:18.772Z,84.31
2022-10-23T09:57:47.843Z,82.91
2022-10-23T10:00:26.547Z,82.30
2022-10-23T10:03:03.621Z,82.40
2022-10-23T10:06:27.308Z,81.58
2022-10-23T10:09:16.507Z,81.62
2022-10-23T10:11:52.261Z,81.35
2022-10-23T10:14:45.317Z,81.39
2022-10-23T10:17:35.504Z,81.47
2022-10-23T10:20:27.963Z,81.83
2022-10-23T10:23:42.187Z,81.94
2022-10-23T10:26:22.835Z,80.85
2022-10-23T10:29:08.682Z,80.43
2022-10-23T10:32:06.322Z,80.39
2022-10-23T10:35:05.334Z,80.01
2022-10-23T10:38:29.404Z,79.72
2022-10-23T10:41:19.812Z,79.05
2022-10-23T10:44:32.632Z,77.62
2022-10-23T10:47:22.596Z,77.08
2022-10-23T10:50:07.894Z,76.80
2022-10-23T10:53:28.245Z,76.26
2022-10-23T10:56:00.265Z,75.88
2022-10-23T10:58:46.038Z,75.41
2022-10-23T11:01:28.773Z,75.14
2022-10-23T11:04:13.254Z,75.38
2022-10-23T11:06:46.242Z,75.44
2022-10-23T11:09:21.769Z,75.18
2022-10-23T11:11:50.528Z,75.33
2022-10-23T11:14:25.540Z,75.91
2022-10-23T11:17:12.273Z,75.64
2022-10-23T11:20:06.234Z,75.47
2022-10-23T11:22:50.790Z,75.57
2022-10-23T11:25:50.092Z,75.74
2022-10-23T11:28:35.673Z,75.27
2022-10-23T11:31:39.653Z,75.54
2022-10-23T11:34:31.316Z,75.90
2022-10-23T11:37:01.946Z,76.46
2022-10-23T11:39:36.977Z,76.33
2022-10-23T11:42:10.578Z,75.64
2022-10-23T11:44:50.332Z,74.67
2022-10-23T11:47:40.436Z,74.38
2022-10-23T11:50:08.954Z,73.86
2022-10-23T11:53:18.353Z,74.05
2022-10-23T11:56:11.815Z,73.74
2022-10-23T11:58:51.974Z,73.80
2022-10-23T12:01:44.488Z,74.06
2022-10-23T12:04:13.000Z,73.30
2022-10-23T12:06:55.788Z,73.47
2022-10-23T12:09:31.848Z,73.49
2022-10-23T12:12:09.551Z,73.41
2022-10-23T12:14:51.853Z,73.21
2022-10-23T12:17:23.325Z,72.72
2022-10-23T12:20:04.266Z,73.05
2022-10-23T12:22:49.861Z,73.02
2022-10-23T12:25:45.598Z,72.47
2022-10-23T12:28:43.244Z,71.09
2022-10-23T12:31:36.012Z,70.35
2022-10-23T12:34:36.634Z,70.33
2022-10-23T12:37:45.062Z,70.02
2022-10-23T12:40:13.631Z,70.14
2022-10-23T12:42:52.236Z,70.26
2022-10-23T12:45:40.233Z,70.52
2022-10-23T12:48:21.652Z,70.50
2022-10-23T12:50:53.239Z,70.70
2022-10-23T12:53:23.402Z,70.77
2022-10-23T12:58:35.285Z,70.69
2022-10-23T13:01:07.432Z,70.60
2022-10-23T13:03:38.429Z,70.40
2022-10-23T13:06:07.818Z,70.41
2022-10-23T13:08:47.098Z,70.53
2022-10-23T13:11:31.987Z,70.90
2022-10-23T13:14:02.406Z,70.81
2022-10-23T13:16:30.783Z,70.72
2022-10-23T13:18:59.148Z,71.13
2022-10-23T13:21:29.883Z,70.95
2022-10-23T13:23:58.466Z,69.87
2022-10-23T13:26:45.451Z,69.62
2022-10-23T13:29:34.864Z,68.92
2022-10-23T13:32:22.709Z,68.40
2022-10-23T13:35:04.145Z,67.88
2022-10-23T13:40:28.164Z,67.08
2022-10-23T13:42:57.461Z,66.86
2022-10-23T13:45:26.804Z,66.31
2022-10-23T13:47:55.057Z,66.28
2022-10-23T13:50:23.418Z,66.35
2022-10-23T13:52:53.018Z,65.99
2022-10-23T13:55:26.630Z,65.78
2022-10-23T13:57:54.902Z,64.85
2022-10-23T14:00:23.284Z,64.79
2022-10-23T14:02:51.695Z,65.00
2022-10-23T14:05:20.359Z,64.95
2022-10-23T14:07:48.739Z,64.88
2022-10-23T14:10:17.036Z,64.84
2022-10-23T14:12:45.743Z,65.12
2022-10-23T14:15:14.488Z,65.12
2022-10-23T14:17:42.805Z,65.38
2022-10-23T14:20:11.827Z,65.70
2022-10-23T14:22:40.270Z,66.02
2022-10-23T14:25:09.012Z,66.54
2022-10-23T14:27:37.389Z,66.54
2022-10-23T14:30:06.785Z,66.53
2022-10-23T14:32:35.188Z,66.45
2022-10-23T14:35:04.153Z,66.90
2022-10-23T14:37:34.125Z,66.74
2022-10-23T14:40:04.607Z,66.97
2022-10-23T14:42:34.636Z,67.24
2022-10-23T14:45:03.425Z,67.43
2022-10-23T14:47:32.409Z,67.84
2022-10-23T14:50:00.796Z,68.07
2022-10-23T14:52:29.174Z,68.59
2022-10-23T14:54:57.533Z,68.72
2022-10-23T14:57:25.776Z,68.89
2022-10-23T14:59:54.018Z,69.02
2022-10-23T15:02:22.483Z,69.25
2022-10-23T15:04:50.758Z,69.48
2022-10-23T15:07:19.124Z,69.68
2022-10-23T15:09:47.501Z,69.92
2022-10-23T15:12:15.778Z,70.09
2022-10-23T15:14:44.243Z,69.98
2022-10-23T15:17:15.685Z,70.64
2022-10-23T15:19:44.314Z,70.90
2022-10-23T15:22:12.726Z,70.92
2022-10-23T15:24:41.067Z,71.30
2022-10-23T15:29:43.334Z,71.47
2022-10-23T15:32:13.355Z,71.42
2022-10-23T15:34:43.074Z,71.65
2022-10-23T15:37:12.153Z,71.90
2022-10-23T15:39:40.498Z,71.90
2022-10-23T15:42:10.881Z,72.18
2022-10-23T15:44:40.435Z,72.13
2022-10-23T15:47:08.664Z,72.17
2022-10-23T15:49:37.349Z,72.10
2022-10-23T15:52:06.214Z,72.25
2022-10-23T15:54:35.475Z,72.44
2022-10-23T15:57:04.302Z,72.54
2022-10-23T15:59:33.053Z,72.86
2022-10-23T16:02:01.426Z,72.99
2022-10-23T16:04:30.346Z,73.04
2022-10-23T16:06:58.650Z,72.84
2022-10-23T16:09:27.118Z,72.98
2022-10-23T16:11:55.493Z,73.47
2022-10-23T16:14:24.342Z,73.62
2022-10-23T16:16:52.675Z,73.78
2022-10-23T16:19:21.034Z,74.03
2022-10-23T16:21:49.417Z,74.13
2022-10-23T16:24:17.735Z,74.46
2022-10-23T16:26:50.579Z,74.79
2022-10-23T16:29:22.171Z,74.91
2022-10-23T16:31:50.987Z,74.76
2022-10-23T16:34:19.968Z,74.73
2022-10-23T16:36:48.853Z,75.02
2022-10-23T16:39:58.095Z,75.17
2022-10-23T16:42:45.802Z,75.18
2022-10-23T16:45:26.346Z,75.24
2022-10-23T16:47:55.581Z,75.51
2022-10-23T16:50:23.925Z,75.90
2022-10-23T16:52:55.473Z,75.78
2022-10-23T16:55:24.175Z,75.80
2022-10-23T16:57:52.541Z,76.38
2022-10-23T17:00:22.864Z,76.39
2022-10-23T17:02:51.105Z,76.16
2022-10-23T17:05:19.405Z,76.27
2022-10-23T17:07:47.694Z,76.24
2022-10-23T17:10:16.245Z,77.06
2022-10-23T17:12:44.654Z,76.77
2022-10-23T17:15:12.929Z,76.78
2022-10-23T17:17:41.510Z,76.79
2022-10-23T17:20:11.744Z,77.02
2022-10-23T17:22:40.112Z,76.84
2022-10-23T17:25:09.637Z,77.20
2022-10-23T17:27:37.898Z,77.19
2022-10-23T17:30:12.375Z,77.26
2022-10-23T17:32:41.534Z,77.34
2022-10-23T17:35:10.696Z,77.23
2022-10-23T17:37:39.090Z,77.31
2022-10-23T17:40:08.624Z,77.31
2022-10-23T17:42:36.766Z,77.48
2022-10-23T17:45:06.027Z,77.75
2022-10-23T17:47:34.537Z,77.68
2022-10-23T17:50:03.644Z,77.47
2022-10-23T17:52:32.826Z,77.46
2022-10-23T17:55:01.130Z,77.43
2022-10-23T17:57:29.478Z,77.43
2022-10-23T17:59:57.733Z,77.44
2022-10-23T18:02:27.064Z,77.74
2022-10-23T18:04:55.433Z,77.65
2022-10-23T18:07:25.891Z,77.99
2022-10-23T18:09:54.549Z,78.12
2022-10-23T18:12:23.181Z,78.59
2022-10-23T18:14:51.455Z,78.34
2022-10-23T18:17:19.769Z,78.34
2022-10-23T18:19:51.535Z,78.33
2022-10-23T18:22:19.816Z,78.12
2022-10-23T18:24:48.210Z,77.97
2022-10-23T18:27:16.470Z,77.79
2022-10-23T18:29:45.149Z,77.88
2022-10-23T18:32:13.446Z,77.71
2022-10-23T18:34:41.929Z,77.66
2022-10-23T18:37:10.408Z,77.48
2022-10-23T18:39:38.887Z,77.73
2022-10-23T18:42:07.270Z,77.91
2022-10-23T18:44:35.658Z,78.14
2022-10-23T18:47:04.287Z,78.06
2022-10-23T18:49:32.810Z,78.05
2022-10-23T18:52:01.188Z,78.25
2022-10-23T18:54:30.057Z,78.03
2022-10-23T18:56:58.355Z,78.22
2022-10-23T18:59:26.720Z,78.13
2022-10-23T19:01:55.328Z,78.06
2022-10-23T19:04:23.902Z,78.23
2022-10-23T19:06:52.364Z,78.30
2022-10-23T19:09:21.187Z,78.34
2022-10-23T19:11:49.649Z,78.12
2022-10-23T19:14:18.130Z,78.36
2022-10-23T19:16:58.625Z,78.28
2022-10-23T19:19:41.901Z,78.37
2022-10-23T19:22:12.881Z,78.44
2022-10-23T19:24:47.280Z,78.30
2022-10-23T19:27:15.643Z,78.30
2022-10-23T19:29:46.866Z,78.22
2022-10-23T19:32:15.582Z,78.44
2022-10-23T19:34:44.357Z,78.30
2022-10-23T19:39:46.073Z,78.38
2022-10-23T19:42:14.718Z,78.50
2022-10-23T19:44:42.969Z,78.70
2022-10-23T19:47:11.388Z,78.62
2022-10-23T19:49:39.777Z,78.47
2022-10-23T19:52:08.060Z,78.49
2022-10-23T19:54:37.956Z,78.80
2022-10-23T19:57:06.196Z,78.85
2022-10-23T19:59:34.918Z,78.86
2022-10-23T20:02:03.715Z,78.69
2022-10-23T20:04:32.193Z,78.60
2022-10-23T20:07:00.709Z,78.62
2022-10-23T20:09:29.437Z,78.68
2022-10-23T20:11:57.830Z,78.47
2022-10-23T20:14:26.662Z,78.31
2022-10-23T20:16:56.103Z,78.37
2022-10-23T20:19:24.485Z,78.27
2022-10-23T20:21:52.886Z,78.26
2022-10-23T20:24:22.060Z,78.42
2022-10-23T20:26:54.643Z,78.40
2022-10-23T20:29:24.993Z,78.31
2022-10-23T20:31:54.458Z,78.20
2022-10-23T20:34:22.659Z,78.28
2022-10-23T20:36:50.939Z,78.43
2022-10-23T20:39:24.664Z,78.48
2022-10-23T20:41:55.472Z,78.56
2022-10-23T20:44:24.320Z,78.18
2022-10-23T20:46:53.250Z,78.06
2022-10-23T20:49:23.134Z,78.39
2022-10-23T20:51:56.858Z,78.48
2022-10-23T20:54:27.705Z,78.33
2022-10-23T20:56:59.641Z,78.32
2022-10-23T20:59:27.985Z,78.17
2022-10-23T21:01:57.401Z,78.18
2022-10-23T21:04:28.186Z,78.38
2022-10-23T21:07:10.077Z,78.48
2022-10-23T21:09:40.327Z,78.60
2022-10-23T21:12:09.584Z,78.64
2022-10-23T21:14:38.484Z,78.60
2022-10-23T21:17:08.590Z,78.73
2022-10-23T21:19:37.096Z,78.80
2022-10-23T21:22:05.375Z,78.61
2022-10-23T21:24:33.639Z,78.67
2022-10-23T21:27:02.415Z,78.47
2022-10-23T21:29:30.805Z,78.43
2022-10-23T21:32:03.989Z,78.25
2022-10-23T21:34:32.371Z,78.24
2022-10-23T21:37:17.882Z,78.05
2022-10-23T21:39:46.529Z,77.93
2022-10-23T21:42:15.564Z,78.10
2022-10-23T21:44:44.123Z,78.05
2022-10-23T21:47:12.366Z,77.98
2022-10-23T21:49:40.661Z,77.85
2022-10-23T21:52:08.945Z,77.95
2022-10-23T21:54:37.294Z,78.34
2022-10-23T21:57:05.794Z,78.54
2022-10-23T21:59:35.950Z,78.69
2022-10-23T22:02:04.947Z,78.96
2022-10-23T22:04:33.411Z,79.04
2022-10-23T22:07:03.158Z,79.04
2022-10-23T22:09:33.615Z,79.01
2022-10-23T22:12:02.127Z,79.22
2022-10-23T22:14:31.101Z,79.08
2022-10-23T22:16:59.581Z,79.29
2022-10-23T22:19:27.972Z,79.06
2022-10-23T22:21:56.350Z,78.97
2022-10-23T22:24:25.024Z,79.09
2022-10-23T22:26:56.676Z,78.86
2022-10-23T22:29:29.552Z,78.90
2022-10-23T22:31:58.722Z,78.67
2022-10-23T22:37:18.745Z,78.55
2022-10-23T22:39:52.337Z,78.35
2022-10-23T22:42:20.941Z,78.42
2022-10-23T22:44:49.337Z,78.38
2022-10-23T22:47:17.715Z,78.33
2022-10-23T22:49:46.080Z,78.07
2022-10-23T22:52:14.471Z,78.11
2022-10-23T22:54:42.836Z,78.00
2022-10-23T22:57:11.229Z,77.84
2022-10-23T22:59:39.521Z,77.62
2022-10-23T23:02:08.601Z,77.43
2022-10-23T23:04:38.876Z,77.57
2022-10-23T23:07:11.607Z,77.37
2022-10-23T23:09:43.098Z,77.07
2022-10-23T23:12:14.307Z,77.00
2022-10-23T23:14:43.273Z,76.86
2022-10-23T23:17:12.374Z,76.62
2022-10-23T23:19:40.869Z,76.36
2022-10-23T23:22:09.324Z,76.31
2022-10-23T23:24:37.918Z,76.10
2022-10-23T23:27:06.208Z,76.39
2022-10-23T23:29:34.689Z,76.59
2022-10-23T23:32:02.939Z,76.86
2022-10-23T23:34:31.341Z,76.91
2022-10-23T23:37:00.701Z,77.01
2022-10-23T23:39:29.214Z,77.14
2022-10-23T23:41:57.794Z,77.21
2022-10-23T23:44:26.028Z,77.20
2022-10-23T23:46:54.459Z,77.55
2022-10-23T23:49:23.148Z,77.69
2022-10-23T23:51:51.814Z,77.52
2022-10-23T23:54:20.212Z,77.36
2022-10-23T23:56:48.601Z,77.44
2022-10-23T23:59:16.950Z,77.70
